Time;durP1;ratioP1;P1;durP2;ratioP2;P2;SDS_P1;SDS_P2;PMS_P1;PMS_P2;Temp;Humidity;BMP_temperature;BMP_pressure;BME280_temperature;BME280_humidity;BME280_pressure;Samples;Min_cycle;Max_cycle;Signal;HPM_P1;HPM_P2
2024/01/26 00:00:35;;;;;;;9.32;4.45;;;12.60;63.50;;;;;;6229611;28;20082;-73
2024/01/26 00:03:38;;;;;;;14.13;4.70;;;12.50;63.40;;;;;;6253433;28;20045;-71
2024/01/26 00:06:39;;;;;;;14.10;5.30;;;12.50;63.50;;;;;;6241672;28;20026;-72
2024/01/26 00:09:40;;;;;;;12.38;5.13;;;12.50;63.70;;;;;;6242685;28;20104;-71
2024/01/26 00:12:41;;;;;;;10.68;4.55;;;12.50;63.70;;;;;;6221680;28;20448;-70
2024/01/26 00:15:46;;;;;;;10.13;4.75;;;12.60;63.80;;;;;;6241332;28;20033;-72
2024/01/26 00:18:46;;;;;;;7.93;3.65;;;12.50;63.70;;;;;;6243273;28;20029;-71
2024/01/26 00:21:48;;;;;;;9.18;4.65;;;12.60;63.60;;;;;;6240993;28;20049;-70
2024/01/26 00:24:49;;;;;;;9.80;5.47;;;12.60;63.50;;;;;;6253545;28;20124;-72
2024/01/26 00:27:50;;;;;;;11.13;4.75;;;12.60;63.50;;;;;;6246756;28;20047;-72
2024/01/26 00:30:51;;;;;;;9.52;4.32;;;12.60;63.60;;;;;;6235075;28;20063;-71
2024/01/26 00:33:51;;;;;;;9.82;4.60;;;12.60;63.60;;;;;;6240556;28;20036;-70
2024/01/26 00:36:52;;;;;;;9.90;4.22;;;12.60;63.70;;;;;;6266565;28;20115;-73
2024/01/26 00:39:53;;;;;;;11.35;4.20;;;12.60;63.60;;;;;;6262750;28;20036;-71
2024/01/26 00:42:54;;;;;;;9.20;4.25;;;12.60;63.60;;;;;;6246702;28;20025;-72
2024/01/26 00:45:55;;;;;;;10.63;4.88;;;12.60;63.70;;;;;;6252074;28;20044;-71
2024/01/26 00:48:56;;;;;;;7.95;3.80;;;12.60;63.60;;;;;;6248080;28;20100;-72
2024/01/26 00:51:57;;;;;;;11.13;4.63;;;12.60;63.60;;;;;;6231533;28;20021;-72
2024/01/26 00:55:00;;;;;;;8.73;4.57;;;12.60;63.70;;;;;;6237921;28;20032;-70
2024/01/26 00:58:00;;;;;;;6.60;4.18;;;12.60;63.80;;;;;;6250694;28;20027;-72
2024/01/26 01:01:02;;;;;;;12.50;5.13;;;12.60;63.80;;;;;;6247504;28;20132;-71
2024/01/26 01:04:03;;;;;;;12.18;4.30;;;12.70;63.90;;;;;;6245225;28;20087;-72
2024/01/26 01:07:04;;;;;;;7.95;4.28;;;12.70;63.80;;;;;;6244868;28;20105;-72
2024/01/26 01:10:06;;;;;;;11.57;4.72;;;12.70;63.90;;;;;;6249284;28;20016;-72
2024/01/26 01:13:10;;;;;;;10.57;4.57;;;12.70;63.80;;;;;;6276586;28;20022;-71
2024/01/26 01:16:12;;;;;;;10.10;4.47;;;12.70;63.70;;;;;;6268029;28;20072;-71
2024/01/26 01:19:13;;;;;;;10.85;4.93;;;12.70;63.80;;;;;;6279119;28;20032;-72
2024/01/26 01:22:14;;;;;;;9.52;4.97;;;12.70;63.80;;;;;;6259318;28;20017;-72
2024/01/26 01:25:15;;;;;;;8.50;4.25;;;12.70;63.90;;;;;;6246280;28;20033;-71
2024/01/26 01:28:16;;;;;;;9.57;4.78;;;12.70;63.90;;;;;;6249759;28;20393;-71
2024/01/26 01:31:17;;;;;;;16.60;4.78;;;12.70;63.90;;;;;;6251391;28;20037;-72
2024/01/26 01:34:18;;;;;;;9.18;4.80;;;12.70;64.00;;;;;;6253172;28;20032;-71
2024/01/26 01:37:19;;;;;;;19.00;5.25;;;12.70;64.00;;;;;;6239762;28;20027;-72
2024/01/26 01:40:19;;;;;;;7.60;4.00;;;12.70;64.00;;;;;;6244767;28;20575;-73
2024/01/26 01:43:20;;;;;;;9.85;4.80;;;12.80;64.00;;;;;;6237316;28;20543;-70
2024/01/26 01:46:22;;;;;;;10.70;4.60;;;12.80;63.80;;;;;;6244919;28;20024;-72
2024/01/26 01:49:24;;;;;;;11.45;5.15;;;12.70;63.60;;;;;;6263355;28;20021;-71
2024/01/26 01:52:27;;;;;;;12.05;5.28;;;12.70;63.70;;;;;;6243577;28;20025;-72
2024/01/26 01:55:29;;;;;;;13.98;4.40;;;12.60;63.90;;;;;;6244513;28;20031;-71
2024/01/26 01:58:32;;;;;;;9.30;4.85;;;12.60;64.20;;;;;;6244986;28;20560;-71
2024/01/26 02:01:33;;;;;;;8.65;4.85;;;12.50;64.40;;;;;;6261073;28;20044;-72
2024/01/26 02:04:34;;;;;;;11.20;4.45;;;12.50;64.70;;;;;;6241621;28;20433;-71
2024/01/26 02:07:35;;;;;;;13.77;4.88;;;12.40;64.70;;;;;;6255512;28;20028;-71
2024/01/26 02:10:35;;;;;;;12.63;4.53;;;12.40;64.80;;;;;;6252836;28;20021;-72
2024/01/26 02:13:36;;;;;;;11.13;4.68;;;12.40;64.90;;;;;;6229311;28;20446;-70
2024/01/26 02:16:37;;;;;;;11.15;4.10;;;12.40;65.00;;;;;;6245685;28;20025;-71
2024/01/26 02:19:38;;;;;;;12.60;4.97;;;12.40;65.00;;;;;;6240922;28;20056;-72
2024/01/26 02:22:39;;;;;;;16.27;4.88;;;12.40;65.00;;;;;;6242012;28;20033;-70
2024/01/26 02:25:39;;;;;;;14.00;4.65;;;12.30;65.00;;;;;;6236009;28;20140;-72
2024/01/26 02:28:41;;;;;;;12.88;4.45;;;12.30;65.00;;;;;;6250393;28;20545;-70
2024/01/26 02:31:42;;;;;;;14.35;4.97;;;12.30;65.20;;;;;;6244155;28;20014;-72
2024/01/26 02:34:43;;;;;;;11.13;4.15;;;12.20;65.10;;;;;;6237415;28;20108;-70
2024/01/26 02:37:44;;;;;;;8.68;4.80;;;12.20;65.30;;;;;;6250880;28;20016;-72
2024/01/26 02:40:47;;;;;;;11.25;4.65;;;12.20;65.40;;;;;;6277077;28;20025;-71
2024/01/26 02:43:48;;;;;;;8.20;4.25;;;12.10;65.50;;;;;;6240623;28;20103;-71
2024/01/26 02:46:49;;;;;;;10.48;4.80;;;12.10;65.70;;;;;;6243297;28;20026;-71
2024/01/26 02:49:50;;;;;;;8.68;4.45;;;12.10;65.70;;;;;;6245705;28;20031;-71
2024/01/26 02:52:51;;;;;;;11.93;4.30;;;12.00;65.70;;;;;;6241759;28;20009;-72
2024/01/26 02:55:52;;;;;;;8.93;4.65;;;12.00;65.80;;;;;;6239302;28;20532;-71
2024/01/26 02:58:53;;;;;;;24.90;4.90;;;12.00;66.00;;;;;;6242503;28;20025;-71
2024/01/26 03:01:54;;;;;;;9.00;4.07;;;11.90;66.10;;;;;;6230311;28;20095;-72
2024/01/26 03:04:54;;;;;;;9.18;5.00;;;11.80;66.30;;;;;;6240739;28;20033;-71
2024/01/26 03:07:55;;;;;;;12.07;5.22;;;11.70;66.50;;;;;;6252654;28;20142;-71
2024/01/26 03:10:56;;;;;;;11.25;4.70;;;11.70;66.60;;;;;;6259622;28;20017;-72
2024/01/26 03:13:57;;;;;;;11.88;4.78;;;11.70;66.60;;;;;;6242930;28;20112;-72
2024/01/26 03:16:58;;;;;;;11.45;5.28;;;11.70;66.60;;;;;;6236191;28;20021;-72
2024/01/26 03:20:02;;;;;;;10.35;4.80;;;11.70;66.70;;;;;;6243986;28;20072;-72
2024/01/26 03:23:03;;;;;;;8.93;4.47;;;11.70;66.80;;;;;;6256570;28;20044;-72
2024/01/26 03:26:04;;;;;;;10.38;4.88;;;11.70;66.80;;;;;;6227039;28;20095;-70
2024/01/26 03:29:06;;;;;;;19.38;4.70;;;11.70;66.80;;;;;;6230000;28;20083;-71
2024/01/26 03:32:07;;;;;;;15.07;5.20;;;11.60;66.60;;;;;;6247599;28;20373;-71
2024/01/26 03:35:08;;;;;;;12.00;4.82;;;11.60;66.80;;;;;;6257851;28;20130;-71
2024/01/26 03:38:10;;;;;;;10.23;4.28;;;11.60;66.90;;;;;;6256222;28;20029;-72
2024/01/26 03:41:11;;;;;;;13.70;5.85;;;11.50;67.10;;;;;;6243344;28;20024;-71
2024/01/26 03:44:12;;;;;;;14.07;4.70;;;11.50;67.20;;;;;;6238880;28;20386;-72
2024/01/26 03:47:12;;;;;;;13.68;4.68;;;11.50;67.20;;;;;;6224580;28;20013;-72
2024/01/26 03:50:13;;;;;;;8.57;4.43;;;11.50;67.30;;;;;;6253020;28;20788;-72
2024/01/26 03:53:14;;;;;;;8.25;4.38;;;11.50;67.40;;;;;;6244008;28;20056;-72
2024/01/26 03:56:15;;;;;;;10.07;4.63;;;11.50;67.40;;;;;;6256803;28;20018;-71
2024/01/26 03:59:16;;;;;;;12.18;4.78;;;11.60;67.30;;;;;;6233076;28;20435;-72
2024/01/26 04:02:17;;;;;;;11.05;4.13;;;11.70;67.10;;;;;;6243697;28;20035;-72
2024/01/26 04:05:18;;;;;;;19.33;5.43;;;11.70;66.90;;;;;;6282093;28;20119;-72
2024/01/26 04:08:19;;;;;;;7.55;4.18;;;11.80;66.80;;;;;;6253520;28;20104;-71
2024/01/26 04:11:20;;;;;;;10.85;4.25;;;11.80;66.70;;;;;;6243209;28;20022;-71
2024/01/26 04:14:21;;;;;;;11.05;3.97;;;11.80;66.70;;;;;;6243502;28;20296;-72
2024/01/26 04:17:21;;;;;;;7.10;3.67;;;11.80;66.50;;;;;;6246093;28;20065;-73
2024/01/26 04:20:23;;;;;;;9.25;3.53;;;11.80;66.50;;;;;;6282983;28;20027;-72
2024/01/26 04:23:24;;;;;;;6.97;3.50;;;11.80;66.50;;;;;;6240502;28;20101;-71
2024/01/26 04:26:26;;;;;;;10.25;4.15;;;11.80;66.60;;;;;;6242446;28;20104;-73
2024/01/26 04:29:26;;;;;;;8.60;4.40;;;11.70;66.50;;;;;;6245085;28;20198;-72
2024/01/26 04:32:28;;;;;;;9.40;3.78;;;11.70;66.70;;;;;;6245695;28;20520;-72
2024/01/26 04:35:30;;;;;;;9.68;3.90;;;11.60;66.80;;;;;;6238948;28;20047;-71
2024/01/26 04:38:30;;;;;;;13.23;4.50;;;11.60;67.00;;;;;;6243435;28;20126;-73
2024/01/26 04:41:31;;;;;;;7.78;3.50;;;11.60;67.10;;;;;;6261583;28;20025;-72
2024/01/26 04:44:33;;;;;;;11.75;3.85;;;11.60;67.10;;;;;;6247074;28;20040;-72
2024/01/26 04:47:34;;;;;;;8.88;3.85;;;11.60;67.10;;;;;;6245836;28;20556;-71
2024/01/26 04:50:34;;;;;;;8.95;3.70;;;11.60;67.00;;;;;;6241248;28;20014;-71
2024/01/26 04:53:35;;;;;;;25.33;4.10;;;11.70;67.10;;;;;;6247150;28;20070;-72
2024/01/26 04:56:36;;;;;;;6.65;3.42;;;11.70;67.10;;;;;;6256536;28;20482;-72
2024/01/26 04:59:37;;;;;;;7.45;3.22;;;11.70;67.00;;;;;;6259083;28;20068;-71
2024/01/26 05:02:38;;;;;;;6.07;3.60;;;11.70;66.80;;;;;;6261393;28;20138;-71
2024/01/26 05:05:39;;;;;;;7.30;4.10;;;11.80;66.70;;;;;;6278951;28;21363;-72
2024/01/26 05:08:40;;;;;;;13.27;4.38;;;11.80;66.60;;;;;;6243764;28;20414;-72
2024/01/26 05:11:41;;;;;;;9.50;4.72;;;11.70;66.60;;;;;;6228838;28;20093;-71
2024/01/26 05:14:42;;;;;;;11.10;4.57;;;11.70;66.50;;;;;;6279564;28;20080;-72
2024/01/26 05:17:43;;;;;;;7.97;4.53;;;11.60;66.60;;;;;;6259681;28;20013;-72
2024/01/26 05:20:43;;;;;;;10.00;4.32;;;11.50;66.60;;;;;;6242324;28;20089;-72
2024/01/26 05:23:45;;;;;;;9.68;3.55;;;11.50;66.50;;;;;;6245750;28;20438;-72
2024/01/26 05:26:46;;;;;;;9.85;4.57;;;11.40;66.40;;;;;;6244541;28;20013;-71
2024/01/26 05:29:47;;;;;;;12.00;4.10;;;11.30;66.40;;;;;;6241041;28;20018;-72
2024/01/26 05:32:48;;;;;;;14.50;4.88;;;11.30;66.60;;;;;;6245506;28;20022;-72
2024/01/26 05:35:48;;;;;;;9.55;4.55;;;11.30;66.80;;;;;;6244842;28;20453;-72
2024/01/26 05:38:49;;;;;;;10.25;4.57;;;11.20;66.90;;;;;;6227585;28;20484;-72
2024/01/26 05:41:50;;;;;;;12.88;4.70;;;11.20;66.90;;;;;;6245393;28;20104;-72
2024/01/26 05:44:51;;;;;;;7.80;4.32;;;11.10;66.90;;;;;;6260051;28;20099;-71
2024/01/26 05:47:52;;;;;;;7.95;3.45;;;11.10;66.80;;;;;;6246044;28;20825;-73
2024/01/26 05:50:53;;;;;;;13.68;3.25;;;11.20;66.80;;;;;;6250002;28;20112;-72
2024/01/26 05:53:54;;;;;;;9.05;3.20;;;11.20;66.70;;;;;;6231460;28;20140;-72
2024/01/26 05:56:55;;;;;;;8.07;3.55;;;11.20;66.60;;;;;;6239501;28;20056;-72
2024/01/26 05:59:57;;;;;;;5.20;3.25;;;11.20;66.50;;;;;;6246280;28;20028;-73
2024/01/26 06:02:57;;;;;;;8.13;4.38;;;11.20;66.50;;;;;;6247403;28;20037;-73
2024/01/26 06:05:58;;;;;;;11.27;4.03;;;11.20;66.50;;;;;;6252777;28;20044;-72
2024/01/26 06:08:59;;;;;;;6.32;3.97;;;11.20;66.50;;;;;;6254461;28;20017;-71
2024/01/26 06:12:00;;;;;;;12.70;4.68;;;11.20;66.40;;;;;;6245545;28;20021;-71
2024/01/26 06:15:01;;;;;;;5.70;3.05;;;11.30;66.40;;;;;;6243954;28;20039;-72
2024/01/26 06:18:03;;;;;;;4.22;2.65;;;11.30;66.30;;;;;;6230718;28;20029;-71
2024/01/26 06:21:04;;;;;;;6.28;3.30;;;11.30;66.30;;;;;;6232514;28;20136;-71
2024/01/26 06:24:05;;;;;;;9.68;3.35;;;11.20;66.20;;;;;;6244827;28;20171;-71
2024/01/26 06:27:05;;;;;;;10.57;3.38;;;11.20;66.40;;;;;;6250112;28;20528;-71
2024/01/26 06:30:07;;;;;;;6.15;3.75;;;11.10;66.50;;;;;;6233601;28;20426;-71
2024/01/26 06:33:07;;;;;;;8.93;4.05;;;11.00;66.60;;;;;;6241421;28;20079;-71
2024/01/26 06:36:11;;;;;;;16.25;3.55;;;11.00;66.90;;;;;;6240431;28;20064;-71
2024/01/26 06:39:12;;;;;;;9.20;3.25;;;11.00;67.10;;;;;;6259453;28;20021;-71
2024/01/26 06:42:13;;;;;;;7.82;3.75;;;10.90;67.20;;;;;;6242347;28;20049;-71
2024/01/26 06:45:14;;;;;;;7.53;4.03;;;10.90;67.30;;;;;;6240554;28;20465;-72
2024/01/26 06:48:14;;;;;;;8.98;3.75;;;11.00;67.50;;;;;;6245534;28;20021;-72
2024/01/26 06:51:15;;;;;;;6.30;3.20;;;10.90;67.30;;;;;;6242131;28;20127;-71
2024/01/26 06:54:16;;;;;;;8.77;3.38;;;11.00;67.30;;;;;;6238557;28;20457;-71
2024/01/26 06:57:17;;;;;;;8.65;4.50;;;10.90;67.10;;;;;;6276329;28;20026;-72
2024/01/26 07:00:19;;;;;;;6.82;3.25;;;10.90;67.10;;;;;;6275075;28;20136;-71
2024/01/26 07:03:20;;;;;;;8.25;3.03;;;11.00;67.20;;;;;;6258553;28;20061;-69
2024/01/26 07:06:20;;;;;;;8.07;3.28;;;11.00;67.10;;;;;;6244266;28;20039;-72
2024/01/26 07:09:21;;;;;;;10.23;4.05;;;10.90;67.00;;;;;;6252780;28;20137;-71
2024/01/26 07:12:22;;;;;;;6.68;3.10;;;10.90;67.10;;;;;;6252228;28;20021;-70
2024/01/26 07:15:23;;;;;;;7.63;3.45;;;10.90;67.10;;;;;;6273008;28;20401;-71
2024/01/26 07:18:24;;;;;;;7.30;3.55;;;10.90;67.10;;;;;;6239834;28;20201;-72
2024/01/26 07:21:25;;;;;;;5.15;2.83;;;10.90;67.10;;;;;;6246227;28;20013;-71
2024/01/26 07:24:26;;;;;;;5.60;3.35;;;10.90;67.10;;;;;;6244230;28;20065;-72
2024/01/26 07:27:27;;;;;;;5.30;3.08;;;10.90;67.00;;;;;;6247185;28;20031;-71
2024/01/26 07:30:28;;;;;;;14.88;3.78;;;10.90;66.80;;;;;;6261943;28;20111;-71
2024/01/26 07:33:29;;;;;;;8.98;4.38;;;11.00;66.70;;;;;;6238942;28;20028;-72
2024/01/26 07:36:31;;;;;;;10.85;3.75;;;11.00;66.60;;;;;;6242054;28;20033;-70
2024/01/26 07:39:33;;;;;;;13.68;2.97;;;11.00;66.50;;;;;;6257891;28;20021;-71
2024/01/26 07:42:35;;;;;;;4.47;2.47;;;11.00;66.30;;;;;;6276059;28;20036;-72
2024/01/26 07:45:36;;;;;;;5.45;2.83;;;11.10;66.00;;;;;;6258420;28;20127;-71
2024/01/26 07:48:37;;;;;;;8.15;3.30;;;11.10;65.80;;;;;;6241382;28;20025;-70
2024/01/26 07:51:38;;;;;;;9.00;3.08;;;11.10;65.80;;;;;;6242209;28;20021;-73
2024/01/26 07:54:41;;;;;;;5.30;3.38;;;11.10;65.70;;;;;;6242407;28;20017;-73
2024/01/26 07:57:42;;;;;;;11.48;3.30;;;11.10;66.20;;;;;;6238806;28;20021;-71
2024/01/26 08:00:44;;;;;;;9.93;3.72;;;11.10;65.40;;;;;;6242401;28;20025;-72
2024/01/26 08:03:45;;;;;;;5.60;3.03;;;11.20;65.30;;;;;;6243291;28;20146;-71
2024/01/26 08:06:46;;;;;;;5.95;2.92;;;11.20;65.20;;;;;;6245831;28;20022;-71
2024/01/26 08:09:47;;;;;;;10.32;2.67;;;11.20;65.00;;;;;;6236801;28;20150;-70
2024/01/26 08:12:48;;;;;;;8.55;2.85;;;11.30;64.80;;;;;;6246299;28;20025;-72
2024/01/26 08:15:48;;;;;;;8.15;3.35;;;11.30;64.50;;;;;;6224207;28;20038;-72
2024/01/26 08:18:49;;;;;;;6.13;3.25;;;11.40;64.30;;;;;;6248753;28;20041;-71
2024/01/26 08:21:50;;;;;;;10.00;4.47;;;11.50;64.20;;;;;;6254936;28;20409;-71
2024/01/26 08:24:51;;;;;;;10.77;3.83;;;11.50;64.00;;;;;;6241893;28;20029;-71
2024/01/26 08:27:53;;;;;;;9.13;3.42;;;11.60;63.70;;;;;;6243116;28;20154;-71
2024/01/26 08:30:54;;;;;;;7.93;3.92;;;11.70;63.40;;;;;;6262037;28;20028;-72
2024/01/26 08:33:55;;;;;;;5.45;2.78;;;11.80;63.00;;;;;;6241196;28;20028;-71
2024/01/26 08:36:55;;;;;;;14.15;4.53;;;11.80;62.80;;;;;;6242637;28;20198;-72
2024/01/26 08:39:57;;;;;;;12.38;3.72;;;11.80;62.60;;;;;;6241082;28;20631;-72
2024/01/26 08:42:58;;;;;;;7.70;3.60;;;11.80;62.40;;;;;;6240142;28;20053;-73
2024/01/26 08:45:59;;;;;;;12.50;3.67;;;11.80;62.30;;;;;;6207802;28;1224160;-71
2024/01/26 08:49:00;;;;;;;9.38;4.40;;;11.90;62.40;;;;;;6250983;28;20100;-72
2024/01/26 08:52:01;;;;;;;6.95;3.35;;;11.90;62.30;;;;;;6243891;28;20156;-72
2024/01/26 08:55:03;;;;;;;7.43;4.10;;;12.10;62.10;;;;;;6245964;28;20021;-71
2024/01/26 08:58:05;;;;;;;8.10;4.03;;;12.10;62.60;;;;;;6258242;28;20029;-71
2024/01/26 09:01:06;;;;;;;9.18;3.78;;;12.10;61.40;;;;;;6247191;28;20032;-71
2024/01/26 09:04:08;;;;;;;9.85;3.88;;;12.20;61.40;;;;;;6255710;28;20037;-71
2024/01/26 09:07:09;;;;;;;7.78;3.85;;;12.20;61.40;;;;;;6252414;28;20075;-71
2024/01/26 09:10:16;;;;;;;10.30;4.38;;;12.20;61.20;;;;;;6246082;28;20166;-73
2024/01/26 09:13:17;;;;;;;10.60;4.38;;;12.30;61.50;;;;;;6247553;28;20025;-70
2024/01/26 09:16:19;;;;;;;9.07;4.65;;;12.40;61.40;;;;;;6249448;28;20017;-73
2024/01/26 09:19:20;;;;;;;7.40;4.13;;;12.60;61.30;;;;;;6245360;28;20055;-71
2024/01/26 09:22:21;;;;;;;8.95;4.72;;;12.80;61.10;;;;;;6246748;28;20507;-72
2024/01/26 09:25:22;;;;;;;8.40;4.25;;;12.90;61.00;;;;;;6242056;28;20382;-72
2024/01/26 09:28:23;;;;;;;9.63;4.05;;;13.00;60.70;;;;;;6243212;28;20139;-73
2024/01/26 09:31:23;;;;;;;8.80;3.97;;;13.00;60.30;;;;;;6264636;28;20118;-70
2024/01/26 09:34:25;;;;;;;8.57;4.32;;;13.10;60.30;;;;;;6224419;28;20087;-72
2024/01/26 09:37:26;;;;;;;8.32;4.38;;;13.00;60.30;;;;;;6251301;28;20024;-71
2024/01/26 09:40:28;;;;;;;9.57;4.15;;;13.10;60.60;;;;;;6242106;28;20027;-72
2024/01/26 09:43:28;;;;;;;13.60;5.03;;;13.10;60.40;;;;;;6234187;28;20032;-72
2024/01/26 09:46:30;;;;;;;10.68;4.88;;;13.20;60.30;;;;;;6248428;28;20445;-71
2024/01/26 09:49:31;;;;;;;13.10;4.72;;;13.40;60.20;;;;;;6241734;28;20508;-72
2024/01/26 09:52:35;;;;;;;8.98;4.95;;;13.50;59.90;;;;;;6246386;28;20035;-72
2024/01/26 09:55:36;;;;;;;11.50;4.95;;;13.70;59.70;;;;;;6244351;28;20110;-71
2024/01/26 09:58:39;;;;;;;7.90;4.85;;;13.80;59.40;;;;;;6245214;28;20037;-72
2024/01/26 10:01:41;;;;;;;12.15;5.10;;;13.90;59.10;;;;;;6263265;28;20025;-71
2024/01/26 10:04:42;;;;;;;12.68;5.32;;;14.00;58.90;;;;;;6244400;28;20020;-72
2024/01/26 10:07:47;;;;;;;10.65;5.28;;;14.00;58.60;;;;;;6246536;28;20041;-72
2024/01/26 10:11:07;;;;;;;9.63;4.88;;;14.00;58.40;;;;;;6247865;28;20113;-71
2024/01/26 10:14:33;;;;;;;12.98;5.90;;;14.00;58.60;;;;;;6242121;28;20049;-72
2024/01/26 10:17:35;;;;;;;14.52;6.03;;;14.10;58.60;;;;;;6246084;28;20496;-72
2024/01/26 10:20:37;;;;;;;14.52;5.95;;;14.20;58.50;;;;;;6239631;28;20045;-72
2024/01/26 10:23:38;;;;;;;18.17;6.07;;;14.30;58.30;;;;;;6243655;28;20057;-71
2024/01/26 10:26:38;;;;;;;18.15;5.90;;;14.40;58.10;;;;;;6244072;28;20122;-71
2024/01/26 10:29:39;;;;;;;11.93;5.45;;;14.50;57.80;;;;;;6258453;28;20025;-72
2024/01/26 10:32:44;;;;;;;16.38;6.07;;;14.70;57.50;;;;;;6245215;28;20087;-71
2024/01/26 10:35:47;;;;;;;23.98;5.53;;;14.90;57.30;;;;;;6246772;28;20020;-71
2024/01/26 10:38:49;;;;;;;14.32;6.55;;;15.00;56.90;;;;;;6273933;28;20075;-70
2024/01/26 10:41:52;;;;;;;12.18;5.25;;;15.20;56.70;;;;;;6278938;28;20025;-72
2024/01/26 10:44:55;;;;;;;11.82;5.93;;;15.20;56.40;;;;;;6246319;28;20036;-73
2024/01/26 10:47:57;;;;;;;8.90;4.55;;;15.40;56.40;;;;;;6249163;28;20017;-72
2024/01/26 10:50:58;;;;;;;10.77;5.75;;;15.40;56.20;;;;;;6240471;28;20083;-70
2024/01/26 10:54:02;;;;;;;17.10;5.90;;;15.50;56.80;;;;;;6244487;28;20025;-72
2024/01/26 10:57:03;;;;;;;19.35;5.75;;;15.70;56.00;;;;;;6242146;28;20023;-71
2024/01/26 11:00:05;;;;;;;28.95;6.32;;;15.90;55.70;;;;;;6242811;28;20124;-72
2024/01/26 11:03:06;;;;;;;9.73;5.40;;;16.00;55.20;;;;;;6241552;28;20059;-72
2024/01/26 11:06:09;;;;;;;23.23;6.10;;;16.10;54.90;;;;;;6242352;28;20037;-72
2024/01/26 11:09:14;;;;;;;21.02;5.28;;;16.30;54.40;;;;;;6247429;28;20021;-72
2024/01/26 11:12:25;;;;;;;16.98;6.60;;;16.50;54.10;;;;;;6258064;28;20679;-73
2024/01/26 11:15:25;;;;;;;12.85;5.20;;;16.80;53.60;;;;;;6256072;28;20029;-72
2024/01/26 11:18:26;;;;;;;10.52;4.97;;;17.10;52.90;;;;;;6277183;28;20103;-73
2024/01/26 11:21:38;;;;;;;15.07;7.38;;;17.50;52.30;;;;;;6272491;28;20518;-71
2024/01/26 11:24:43;;;;;;;15.65;6.50;;;17.70;51.10;;;;;;6222699;28;20156;-72
2024/01/26 11:27:44;;;;;;;19.80;6.68;;;17.90;50.50;;;;;;6250219;28;20049;-72
2024/01/26 11:30:57;;;;;;;12.73;5.45;;;18.10;50.40;;;;;;6248653;28;20020;-71
2024/01/26 11:33:59;;;;;;;16.58;4.82;;;18.20;50.10;;;;;;6272516;28;20040;-72
2024/01/26 11:37:13;;;;;;;23.75;7.10;;;18.30;49.50;;;;;;6239313;28;20123;-72
2024/01/26 11:40:14;;;;;;;13.45;5.65;;;18.10;50.30;;;;;;6243237;28;20045;-71
2024/01/26 11:43:15;;;;;;;22.05;5.60;;;18.00;49.90;;;;;;6247628;28;20017;-72
2024/01/26 11:46:17;;;;;;;13.63;6.22;;;17.90;49.90;;;;;;6243089;28;20056;-73
2024/01/26 11:49:18;;;;;;;10.57;4.88;;;17.80;50.20;;;;;;6244644;28;20010;-73
2024/01/26 11:52:21;;;;;;;11.73;4.88;;;17.70;50.20;;;;;;6247270;28;20021;-72
2024/01/26 11:55:22;;;;;;;13.82;5.28;;;17.70;50.00;;;;;;6259869;28;20044;-73
2024/01/26 11:58:24;;;;;;;9.82;4.28;;;17.60;50.30;;;;;;6229037;28;20093;-72
2024/01/26 12:01:25;;;;;;;10.75;5.25;;;17.60;50.30;;;;;;6255735;28;20025;-72
2024/01/26 12:04:27;;;;;;;18.00;5.25;;;17.70;50.20;;;;;;6237883;28;20095;-72
2024/01/26 12:07:28;;;;;;;14.95;6.20;;;17.80;49.90;;;;;;6274532;28;20017;-72
2024/01/26 12:10:28;;;;;;;19.77;6.53;;;17.80;49.50;;;;;;6225050;28;20024;-73
2024/01/26 12:13:30;;;;;;;44.45;11.57;;;17.80;49.50;;;;;;6242726;28;20121;-72
2024/01/26 12:16:31;;;;;;;12.40;6.07;;;17.80;49.50;;;;;;6243336;28;20475;-72
2024/01/26 12:19:32;;;;;;;11.05;5.18;;;17.80;49.60;;;;;;6249937;28;20021;-73
2024/01/26 12:22:34;;;;;;;13.68;5.60;;;17.70;49.40;;;;;;6275731;28;21417;-71
2024/01/26 12:25:36;;;;;;;10.52;5.13;;;17.70;49.50;;;;;;6249464;28;20036;-72
2024/01/26 12:28:37;;;;;;;10.70;4.60;;;17.70;49.50;;;;;;6246545;28;20477;-73
2024/01/26 12:31:38;;;;;;;8.98;4.03;;;17.60;49.00;;;;;;6244000;28;21223;-72
2024/01/26 12:34:41;;;;;;;8.32;3.97;;;17.50;49.30;;;;;;6247442;28;20017;-71
2024/01/26 12:37:44;;;;;;;8.63;4.07;;;17.40;49.20;;;;;;6244356;28;20028;-72
2024/01/26 12:40:47;;;;;;;15.75;3.65;;;17.40;49.40;;;;;;6227795;28;20465;-72
2024/01/26 12:43:48;;;;;;;15.25;4.18;;;17.30;49.60;;;;;;6247398;28;20028;-72
2024/01/26 12:46:49;;;;;;;8.27;3.53;;;17.30;49.80;;;;;;6263531;28;20029;-73
2024/01/26 12:49:50;;;;;;;13.27;4.13;;;17.40;49.70;;;;;;6242842;28;20116;-71
2024/01/26 12:52:51;;;;;;;12.65;4.78;;;17.40;49.60;;;;;;6242742;28;20043;-73
2024/01/26 12:55:52;;;;;;;10.23;3.63;;;17.30;49.60;;;;;;6250016;28;20163;-74
2024/01/26 12:58:53;;;;;;;9.70;4.30;;;17.30;49.90;;;;;;6244644;28;20029;-72
2024/01/26 13:01:54;;;;;;;8.15;4.10;;;17.30;50.00;;;;;;6243767;28;20199;-72
2024/01/26 13:04:54;;;;;;;10.93;4.00;;;17.40;49.80;;;;;;6244262;28;20540;-73
2024/01/26 13:07:55;;;;;;;9.65;3.80;;;17.40;49.70;;;;;;6248600;28;20033;-72
2024/01/26 13:10:56;;;;;;;8.52;3.53;;;17.50;49.80;;;;;;6247208;28;20637;-73
2024/01/26 13:13:58;;;;;;;6.32;3.72;;;17.50;49.60;;;;;;6247443;28;20115;-72
2024/01/26 13:16:59;;;;;;;9.13;3.47;;;17.50;49.80;;;;;;6243242;28;20018;-72
2024/01/26 13:20:00;;;;;;;15.15;4.00;;;17.60;49.80;;;;;;6281419;28;20029;-72
2024/01/26 13:23:01;;;;;;;8.82;4.07;;;17.60;49.60;;;;;;6242388;28;20494;-72
2024/01/26 13:26:02;;;;;;;12.90;4.18;;;17.60;49.50;;;;;;6248777;28;20048;-71
2024/01/26 13:29:03;;;;;;;9.77;3.58;;;17.50;49.50;;;;;;6230282;28;20067;-72
2024/01/26 13:32:05;;;;;;;7.20;2.90;;;17.50;49.60;;;;;;6245148;28;20099;-71
2024/01/26 13:35:06;;;;;;;5.68;2.92;;;17.60;49.60;;;;;;6243553;28;20033;-72
2024/01/26 13:38:07;;;;;;;12.18;4.10;;;17.60;49.30;;;;;;6245371;28;20072;-73
2024/01/26 13:41:08;;;;;;;14.77;6.40;;;17.60;49.20;;;;;;6245746;28;20021;-73
2024/01/26 13:44:10;;;;;;;9.38;4.00;;;17.60;48.90;;;;;;6244086;28;20115;-71
2024/01/26 13:47:11;;;;;;;9.98;3.72;;;17.70;48.80;;;;;;6226912;28;20112;-71
2024/01/26 13:50:12;;;;;;;10.23;2.38;;;17.60;48.30;;;;;;6246753;28;20666;-72
2024/01/26 13:53:14;;;;;;;6.50;2.42;;;17.50;48.20;;;;;;6243821;28;20009;-70
2024/01/26 13:56:15;;;;;;;5.80;2.90;;;17.50;48.40;;;;;;6248042;28;20354;-73
2024/01/26 13:59:17;;;;;;;5.93;3.30;;;17.40;48.30;;;;;;6247131;28;20048;-73
2024/01/26 14:02:19;;;;;;;4.57;2.40;;;17.40;48.80;;;;;;6247885;28;20503;-72
2024/01/26 14:05:20;;;;;;;6.40;3.08;;;17.30;48.20;;;;;;6262068;28;20731;-73
2024/01/26 14:08:22;;;;;;;7.68;3.10;;;17.30;48.40;;;;;;6243424;28;20061;-70
2024/01/26 14:11:23;;;;;;;8.82;4.32;;;17.30;48.50;;;;;;6241082;28;20056;-72
2024/01/26 14:14:24;;;;;;;7.07;2.85;;;17.40;48.40;;;;;;6246053;28;20041;-71
2024/01/26 14:17:25;;;;;;;4.90;2.50;;;17.50;48.40;;;;;;6242688;28;20025;-72
2024/01/26 14:20:27;;;;;;;6.57;3.28;;;17.50;48.40;;;;;;6268509;28;20082;-72
2024/01/26 14:23:29;;;;;;;9.10;3.50;;;17.50;48.40;;;;;;6236955;28;20021;-72
2024/01/26 14:26:30;;;;;;;5.50;2.55;;;17.50;48.20;;;;;;6244173;28;20114;-71
2024/01/26 14:29:33;;;;;;;8.85;2.80;;;17.50;48.20;;;;;;6252660;28;20017;-70
2024/01/26 14:32:35;;;;;;;6.35;2.42;;;17.50;48.30;;;;;;6247243;28;20111;-72
2024/01/26 14:35:36;;;;;;;5.20;2.53;;;17.50;48.10;;;;;;6242513;28;20025;-71
2024/01/26 14:38:37;;;;;;;7.47;2.97;;;17.50;48.10;;;;;;6244139;28;21521;-71
2024/01/26 14:41:39;;;;;;;8.95;3.63;;;17.50;48.10;;;;;;6264853;28;20070;-72
2024/01/26 14:44:40;;;;;;;8.35;3.15;;;17.50;48.20;;;;;;6243413;28;20033;-70
2024/01/26 14:47:41;;;;;;;5.03;2.28;;;17.50;48.20;;;;;;6243893;28;20091;-72
2024/01/26 14:50:42;;;;;;;8.77;3.40;;;17.50;48.10;;;;;;6246221;28;20034;-70
2024/01/26 14:53:42;;;;;;;8.10;3.53;;;17.50;48.30;;;;;;6276867;28;20103;-72
2024/01/26 14:56:44;;;;;;;7.43;2.83;;;17.50;48.20;;;;;;6260163;28;20036;-73
2024/01/26 14:59:45;;;;;;;5.90;3.22;;;17.50;48.10;;;;;;6271009;28;20043;-71
2024/01/26 15:02:46;;;;;;;5.10;2.80;;;17.60;48.10;;;;;;6237986;28;20022;-72
2024/01/26 15:05:46;;;;;;;8.98;3.35;;;17.60;48.10;;;;;;6260840;28;20154;-73
2024/01/26 15:08:48;;;;;;;7.93;2.30;;;17.60;47.80;;;;;;6242619;28;20040;-71
2024/01/26 15:11:48;;;;;;;14.90;3.00;;;17.50;47.80;;;;;;6244309;28;20021;-72
2024/01/26 15:14:50;;;;;;;6.00;2.95;;;17.40;47.90;;;;;;6251424;28;20093;-72
2024/01/26 15:17:51;;;;;;;7.38;2.88;;;17.40;48.00;;;;;;6245332;28;20116;-70
2024/01/26 15:20:52;;;;;;;15.43;2.92;;;17.30;48.00;;;;;;6244917;28;20029;-71
2024/01/26 15:23:52;;;;;;;4.78;2.30;;;17.30;48.20;;;;;;6247640;28;20120;-72
2024/01/26 15:26:54;;;;;;;9.38;3.95;;;17.30;48.00;;;;;;6251249;28;20132;-72
2024/01/26 15:29:55;;;;;;;10.15;4.40;;;17.20;48.20;;;;;;6249481;28;20025;-72
2024/01/26 15:32:56;;;;;;;14.75;3.53;;;17.10;48.30;;;;;;6229992;28;20202;-71
2024/01/26 15:35:57;;;;;;;12.10;2.88;;;17.10;48.50;;;;;;6245012;28;20017;-73
2024/01/26 15:38:58;;;;;;;14.98;2.78;;;17.00;48.60;;;;;;6262887;28;20158;-72